Time;durP1;ratioP1;P1;durP2;ratioP2;P2;SDS_P1;SDS_P2;PMS_P1;PMS_P2;Temp;Humidity;BMP_temperature;BMP_pressure;BME280_temperature;BME280_humidity;BME280_pressure;Samples;Min_cycle;Max_cycle;Signal;HPM_P1;HPM_P2
2022/11/11 00:01:14;;;;;;;6.15;1.20;;;25.60;73.50;;;;;;5012612;28;20379;-81
2022/11/11 00:03:42;;;;;;;9.38;1.20;;;25.60;72.30;;;;;;5012484;28;20383;-83
2022/11/11 00:06:11;;;;;;;2.30;0.90;;;25.50;72.20;;;;;;5012464;28;20945;-81
2022/11/11 00:08:39;;;;;;;2.75;0.80;;;25.50;70.80;;;;;;5012362;28;20798;-82
2022/11/11 00:11:08;;;;;;;4.88;1.00;;;25.50;71.60;;;;;;5011223;28;20388;-82
2022/11/11 00:13:37;;;;;;;2.05;0.80;;;25.60;70.70;;;;;;5012524;28;20395;-81
2022/11/11 00:16:12;;;;;;;3.92;0.80;;;25.80;69.40;;;;;;5012290;28;20390;-82
2022/11/11 00:27:16;;;;;;;2.45;0.80;;;26.50;68.70;;;;;;5012105;28;20862;-83
2022/11/11 00:29:46;;;;;;;2.95;0.82;;;26.50;66.70;;;;;;4998377;28;20492;-83
2022/11/11 00:32:26;;;;;;;2.65;0.88;;;26.40;67.60;;;;;;5012194;28;20399;-82
2022/11/11 00:37:43;;;;;;;4.05;0.90;;;26.40;67.10;;;;;;5012240;28;20378;-83
2022/11/11 00:40:11;;;;;;;3.20;0.88;;;26.30;68.40;;;;;;5011592;28;20438;-82
2022/11/11 00:42:38;;;;;;;1.65;0.70;;;26.50;67.60;;;;;;5010658;28;20395;-83
2022/11/11 00:45:07;;;;;;;3.08;0.90;;;26.20;67.20;;;;;;5011649;28;20371;-82
2022/11/11 00:53:13;;;;;;;2.83;0.80;;;26.80;66.50;;;;;;4987153;28;20421;-81
2022/11/11 00:55:40;;;;;;;1.13;0.63;;;26.90;64.70;;;;;;5011714;28;20390;-82
2022/11/11 00:58:07;;;;;;;1.95;0.90;;;27.10;63.90;;;;;;4984331;28;20382;-82
2022/11/11 01:00:34;;;;;;;2.65;0.70;;;27.40;63.60;;;;;;5011731;28;20389;-82
2022/11/11 01:03:01;;;;;;;2.53;0.73;;;27.60;63.90;;;;;;5011238;28;20466;-82
2022/11/11 01:05:29;;;;;;;1.25;0.80;;;27.60;61.50;;;;;;5011538;28;20383;-84
2022/11/11 01:07:56;;;;;;;1.60;0.80;;;27.80;62.30;;;;;;5011383;28;20468;-82
2022/11/11 01:10:38;;;;;;;2.65;0.88;;;28.00;59.80;;;;;;5011240;28;20407;-84
2022/11/11 01:13:13;;;;;;;2.33;0.80;;;28.10;61.30;;;;;;5011169;28;20442;-81
2022/11/11 01:15:43;;;;;;;4.40;0.80;;;28.20;60.60;;;;;;5011376;28;20407;-83
2022/11/11 01:18:12;;;;;;;3.00;0.80;;;28.60;60.00;;;;;;5011023;28;20409;-84
2022/11/11 01:20:40;;;;;;;1.58;0.82;;;28.60;58.40;;;;;;5011285;28;20449;-82
2022/11/11 01:23:09;;;;;;;2.35;0.70;;;28.50;58.60;;;;;;5010660;28;20429;-83
2022/11/11 01:25:37;;;;;;;3.63;0.70;;;28.40;57.20;;;;;;5011219;28;20390;-82
2022/11/11 01:28:05;;;;;;;2.80;0.80;;;28.20;57.80;;;;;;5011428;28;20370;-83
2022/11/11 01:30:34;;;;;;;2.58;0.95;;;28.60;59.50;;;;;;5011112;28;20403;-82
2022/11/11 01:33:02;;;;;;;2.55;0.70;;;28.90;57.80;;;;;;5011809;28;20430;-82
2022/11/11 01:35:29;;;;;;;2.60;0.70;;;28.90;56.80;;;;;;5012640;28;20375;-82
2022/11/11 01:37:58;;;;;;;2.03;0.70;;;28.70;57.70;;;;;;5014323;28;20375;-82
2022/11/11 01:40:25;;;;;;;3.40;0.80;;;28.80;56.40;;;;;;5015357;28;20403;-83
2022/11/11 01:43:03;;;;;;;3.42;0.80;;;28.90;56.50;;;;;;5013232;28;20941;-83
2022/11/11 01:45:50;;;;;;;1.67;0.60;;;29.10;56.60;;;;;;4997872;28;20383;-83
2022/11/11 01:51:53;;;;;;;3.10;0.90;;;29.70;56.70;;;;;;5011339;28;20470;-83
2022/11/11 01:54:33;;;;;;;1.50;0.70;;;29.70;54.80;;;;;;5010652;28;20429;-83
2022/11/11 01:57:32;;;;;;;2.58;0.70;;;29.50;54.90;;;;;;5012584;28;20443;-82
2022/11/11 02:00:04;;;;;;;3.20;0.70;;;29.10;55.40;;;;;;4986915;28;20378;-82
2022/11/11 02:02:31;;;;;;;2.90;0.80;;;28.70;56.10;;;;;;5010587;28;20449;-82
2022/11/11 02:07:45;;;;;;;1.87;0.70;;;28.80;56.10;;;;;;4996832;28;20730;-83
2022/11/11 02:10:12;;;;;;;2.15;0.90;;;29.30;55.80;;;;;;5010489;28;20443;-83
2022/11/11 02:15:24;;;;;;;3.47;0.90;;;31.60;54.10;;;;;;4980230;28;20816;-83
2022/11/11 02:17:51;;;;;;;1.53;0.70;;;32.30;52.10;;;;;;5004573;28;20378;-82
2022/11/11 02:20:28;;;;;;;2.13;0.80;;;32.30;51.10;;;;;;4998458;28;20387;-83
2022/11/11 02:23:06;;;;;;;2.40;0.80;;;31.50;52.00;;;;;;5011053;28;20486;-82
2022/11/11 02:25:37;;;;;;;2.90;0.70;;;30.50;53.00;;;;;;5011103;28;20384;-82
2022/11/11 02:28:06;;;;;;;3.08;1.00;;;30.10;54.40;;;;;;5011563;28;20383;-82
2022/11/11 02:30:33;;;;;;;1.33;0.70;;;30.20;54.90;;;;;;5011300;28;20458;-84
2022/11/11 02:33:00;;;;;;;4.32;0.70;;;30.70;54.80;;;;;;5010699;28;20386;-84
2022/11/11 02:35:36;;;;;;;2.25;0.70;;;30.80;54.00;;;;;;5012866;28;20407;-83
2022/11/11 02:38:10;;;;;;;1.98;0.70;;;31.00;54.60;;;;;;5014390;28;20383;-82
2022/11/11 02:43:32;;;;;;;4.35;0.70;;;31.90;52.50;;;;;;5014103;28;20716;-81
2022/11/11 02:46:00;;;;;;;2.58;0.80;;;32.00;52.20;;;;;;5012841;28;20387;-82
2022/11/11 02:48:28;;;;;;;2.75;0.80;;;32.00;52.20;;;;;;5013789;28;20389;-81
2022/11/11 02:50:55;;;;;;;1.85;0.70;;;31.90;51.50;;;;;;5013742;28;20391;-82
2022/11/11 02:53:22;;;;;;;2.78;0.80;;;31.40;52.10;;;;;;5013857;28;20375;-83
2022/11/11 02:55:49;;;;;;;1.80;0.80;;;31.20;53.10;;;;;;4999815;28;20797;-83
2022/11/11 02:58:17;;;;;;;2.33;0.70;;;31.20;52.70;;;;;;5013770;28;20426;-83
2022/11/11 03:00:44;;;;;;;2.92;0.70;;;31.40;52.70;;;;;;5013901;28;20862;-84
2022/11/11 03:03:11;;;;;;;3.25;0.85;;;31.00;52.00;;;;;;5013927;28;20416;-83
2022/11/11 03:05:38;;;;;;;4.25;0.90;;;30.00;53.50;;;;;;5013943;28;20397;-83
2022/11/11 03:08:05;;;;;;;3.08;0.82;;;29.40;55.00;;;;;;5014074;28;20498;-82
2022/11/11 03:10:32;;;;;;;1.85;0.90;;;28.70;56.00;;;;;;5003810;28;20405;-83
2022/11/11 03:12:59;;;;;;;2.25;0.80;;;28.20;57.00;;;;;;5010087;28;20456;-85
2022/11/11 03:15:26;;;;;;;2.45;0.73;;;27.80;57.70;;;;;;5013537;28;20563;-83
2022/11/11 03:17:53;;;;;;;2.33;0.70;;;27.50;58.20;;;;;;5013392;28;20386;-82
2022/11/11 03:23:09;;;;;;;2.08;0.70;;;27.20;59.10;;;;;;5013606;28;20381;-83
2022/11/11 03:25:45;;;;;;;2.50;1.00;;;26.90;59.70;;;;;;5013363;28;20441;-83
2022/11/11 03:28:15;;;;;;;2.67;0.90;;;26.70;60.00;;;;;;5013278;28;20387;-84
2022/11/11 03:30:48;;;;;;;2.75;0.80;;;26.50;60.00;;;;;;5013251;28;20383;-83
2022/11/11 03:33:17;;;;;;;6.47;1.00;;;26.30;61.10;;;;;;5013434;28;20375;-82
2022/11/11 03:35:46;;;;;;;2.88;0.80;;;26.00;63.30;;;;;;5013712;28;20394;-85
2022/11/11 03:38:23;;;;;;;4.55;1.05;;;25.40;64.80;;;;;;5013001;28;20411;-83
2022/11/11 03:40:56;;;;;;;3.03;1.10;;;25.00;67.20;;;;;;5013069;28;20413;-83
2022/11/11 03:43:28;;;;;;;4.32;1.20;;;24.40;76.40;;;;;;5012357;28;20820;-81
2022/11/11 03:45:57;;;;;;;4.63;1.20;;;23.40;86.20;;;;;;5012985;28;20880;-83
2022/11/11 03:48:25;;;;;;;3.05;1.40;;;22.40;99.60;;;;;;5013077;28;20375;-80
2022/11/11 03:50:53;;;;;;;3.95;1.50;;;22.00;99.90;;;;;;5013044;28;20879;-81
2022/11/11 03:53:21;;;;;;;4.35;1.40;;;21.80;99.90;;;;;;5012665;28;20383;-82
2022/11/11 03:55:49;;;;;;;3.23;1.13;;;21.70;99.90;;;;;;5011483;28;20402;-82
2022/11/11 03:58:17;;;;;;;3.20;1.33;;;21.80;99.90;;;;;;5000210;28;20425;-81
2022/11/11 04:00:45;;;;;;;2.72;1.20;;;21.90;99.90;;;;;;5012614;28;20383;-83
2022/11/11 04:11:36;;;;;;;2.38;1.20;;;22.30;99.90;;;;;;5012605;28;20420;-81
2022/11/11 04:16:54;;;;;;;3.40;1.10;;;21.70;99.90;;;;;;4986628;28;20367;-83
2022/11/11 04:22:06;;;;;;;3.77;1.20;;;21.30;99.90;;;;;;4980474;28;20414;-81
2022/11/11 04:27:19;;;;;;;4.05;1.48;;;21.20;99.90;;;;;;5012153;28;20371;-81
2022/11/11 04:29:46;;;;;;;2.97;1.20;;;21.00;99.90;;;;;;5011730;28;20413;-82
2022/11/11 04:32:34;;;;;;;3.95;1.10;;;21.10;99.90;;;;;;5012101;28;20475;-81
2022/11/11 04:35:10;;;;;;;3.60;1.20;;;21.10;99.90;;;;;;5011858;28;20437;-82
2022/11/11 04:37:46;;;;;;;3.83;1.23;;;21.30;99.90;;;;;;5003481;28;20387;-82
2022/11/11 04:42:58;;;;;;;2.60;1.20;;;21.50;99.90;;;;;;5011859;28;20936;-82
2022/11/11 04:45:29;;;;;;;2.65;1.20;;;21.80;99.90;;;;;;5011975;28;20383;-82
2022/11/11 04:48:12;;;;;;;3.13;1.10;;;22.00;99.90;;;;;;5011847;28;20782;-82
2022/11/11 04:50:41;;;;;;;2.28;1.20;;;22.20;99.90;;;;;;5011407;28;20936;-82
2022/11/11 04:53:13;;;;;;;3.22;1.30;;;22.40;99.90;;;;;;5011794;28;20394;-82
2022/11/11 04:58:31;;;;;;;5.07;1.35;;;22.70;99.90;;;;;;5011762;28;20369;-82
2022/11/11 05:01:00;;;;;;;3.92;1.30;;;22.80;99.90;;;;;;4997914;28;20404;-82
2022/11/11 05:03:27;;;;;;;3.72;1.20;;;23.00;99.90;;;;;;5010429;28;20391;-83
2022/11/11 05:08:56;;;;;;;3.10;1.17;;;23.00;99.90;;;;;;5006305;28;20969;-83
2022/11/11 05:11:23;;;;;;;3.63;1.27;;;23.10;99.90;;;;;;4996420;28;20402;-81
2022/11/11 05:22:30;;;;;;;2.90;1.10;;;23.30;99.90;;;;;;4941587;29;20401;-83
2022/11/11 05:27:42;;;;;;;2.90;1.00;;;23.10;99.90;;;;;;4950874;29;20728;-82
2022/11/11 05:30:11;;;;;;;2.87;1.20;;;23.20;99.90;;;;;;4933513;29;20424;-83
2022/11/11 05:32:38;;;;;;;5.22;1.23;;;23.30;99.90;;;;;;4932938;29;20482;-83
2022/11/11 05:35:06;;;;;;;4.90;1.20;;;23.50;99.90;;;;;;4939502;29;20402;-82
2022/11/11 05:37:33;;;;;;;3.13;1.10;;;23.60;99.90;;;;;;4936483;29;20398;-86
2022/11/11 05:40:00;;;;;;;9.13;1.20;;;23.80;99.90;;;;;;4945253;29;20426;-83
2022/11/11 05:42:27;;;;;;;4.90;1.20;;;23.90;99.90;;;;;;4932349;29;20485;-82
2022/11/11 05:44:54;;;;;;;4.78;1.20;;;24.00;99.90;;;;;;4940801;29;20933;-82
2022/11/11 05:47:21;;;;;;;2.43;1.20;;;24.10;99.90;;;;;;4949562;29;20380;-83
2022/11/11 05:49:48;;;;;;;5.50;1.10;;;24.30;99.50;;;;;;4940759;29;20457;-82
2022/11/11 05:52:16;;;;;;;3.80;1.30;;;24.50;98.60;;;;;;4934626;29;21108;-79
2022/11/11 05:54:44;;;;;;;3.57;1.10;;;24.60;98.20;;;;;;4949878;29;20452;-83
2022/11/11 05:57:11;;;;;;;1.73;1.00;;;24.60;97.80;;;;;;4988878;28;20389;-82
2022/11/11 05:59:38;;;;;;;4.32;1.10;;;24.70;97.80;;;;;;4991511;28;20981;-81
2022/11/11 06:02:05;;;;;;;2.22;1.08;;;24.70;96.90;;;;;;5000156;28;20421;-81
2022/11/11 06:04:34;;;;;;;2.40;1.30;;;24.50;97.20;;;;;;4993272;28;20468;-81
2022/11/11 06:07:01;;;;;;;3.15;1.10;;;24.40;97.50;;;;;;4998638;28;20805;-80
2022/11/11 06:09:28;;;;;;;2.42;1.20;;;24.20;97.40;;;;;;5005013;28;20407;-83
2022/11/11 06:11:55;;;;;;;2.50;1.10;;;24.00;98.00;;;;;;5002409;28;20395;-82
2022/11/11 06:14:22;;;;;;;2.20;1.10;;;24.00;98.60;;;;;;5004584;28;20390;-81
2022/11/11 06:16:49;;;;;;;3.08;1.15;;;23.90;99.00;;;;;;4993295;28;20462;-82
2022/11/11 06:19:16;;;;;;;2.03;1.10;;;23.80;99.10;;;;;;4994977;28;20853;-84
2022/11/11 06:21:59;;;;;;;1.87;0.93;;;23.80;99.70;;;;;;5010493;28;20383;-83
2022/11/11 06:24:26;;;;;;;3.25;0.90;;;23.70;99.20;;;;;;4998447;28;20396;-81
2022/11/11 06:26:54;;;;;;;1.60;0.77;;;23.60;98.80;;;;;;5006236;28;20415;-82
2022/11/11 06:29:21;;;;;;;1.92;0.90;;;23.60;98.90;;;;;;5001340;28;20404;-81
2022/11/11 06:31:48;;;;;;;1.45;0.90;;;23.50;99.20;;;;;;5010709;28;20390;-82
2022/11/11 06:34:15;;;;;;;2.38;0.80;;;23.40;99.20;;;;;;5010389;28;20371;-82
2022/11/11 06:36:42;;;;;;;1.70;0.90;;;23.40;99.50;;;;;;5008578;28;20462;-80
2022/11/11 06:39:09;;;;;;;3.40;0.90;;;23.50;99.80;;;;;;4989268;28;20420;-81
2022/11/11 06:41:36;;;;;;;2.50;1.00;;;23.80;99.50;;;;;;5004223;28;20397;-84
2022/11/11 06:44:03;;;;;;;1.73;0.88;;;23.90;99.90;;;;;;4985200;28;20392;-84
2022/11/11 06:46:30;;;;;;;2.75;0.93;;;24.10;99.40;;;;;;5002529;28;20438;-85
2022/11/11 06:48:57;;;;;;;2.97;0.90;;;24.10;99.60;;;;;;5010273;28;20422;-85
2022/11/11 06:51:24;;;;;;;1.90;0.90;;;24.10;99.90;;;;;;5008295;28;20470;-82
2022/11/11 06:53:52;;;;;;;2.47;0.88;;;24.00;99.90;;;;;;4991951;28;20757;-82
2022/11/11 06:56:19;;;;;;;2.47;1.00;;;24.00;99.90;;;;;;4995278;28;20387;-81
2022/11/11 06:58:46;;;;;;;1.35;0.80;;;24.00;99.90;;;;;;5005926;28;20954;-85
2022/11/11 07:01:13;;;;;;;1.77;0.90;;;24.20;99.90;;;;;;5008137;28;20395;-80
2022/11/11 07:03:40;;;;;;;4.55;1.10;;;24.60;99.90;;;;;;5003971;28;20392;-82
2022/11/11 07:06:07;;;;;;;1.90;0.80;;;25.30;98.90;;;;;;5006166;28;20391;-83
2022/11/11 07:08:34;;;;;;;1.00;0.80;;;26.00;97.10;;;;;;5000658;28;20755;-82
2022/11/11 07:11:01;;;;;;;2.35;0.90;;;26.20;96.50;;;;;;5010524;28;20383;-84
2022/11/11 07:13:28;;;;;;;1.63;0.90;;;26.10;95.90;;;;;;5005902;28;20388;-83
2022/11/11 07:15:55;;;;;;;2.60;0.85;;;25.70;96.40;;;;;;4996425;28;20495;-84
2022/11/11 07:18:22;;;;;;;2.05;1.00;;;25.20;97.10;;;;;;5008933;28;20736;-85
2022/11/11 07:20:49;;;;;;;2.22;0.98;;;24.90;98.00;;;;;;5000265;28;20404;-83
2022/11/11 07:23:16;;;;;;;3.00;1.00;;;24.60;98.80;;;;;;4996199;28;20910;-81
2022/11/11 07:25:44;;;;;;;1.80;1.00;;;24.40;99.60;;;;;;5004527;28;20389;-82
2022/11/11 07:28:11;;;;;;;1.83;1.00;;;24.30;99.70;;;;;;4994913;28;20474;-83
2022/11/11 07:30:38;;;;;;;1.85;0.95;;;24.00;99.90;;;;;;4996616;28;20436;-84
2022/11/11 07:33:05;;;;;;;1.92;1.02;;;23.90;99.90;;;;;;4993266;28;20885;-82
2022/11/11 07:35:32;;;;;;;2.58;1.00;;;23.60;99.90;;;;;;5013222;28;20387;-81
2022/11/11 07:37:58;;;;;;;2.30;1.03;;;23.40;99.90;;;;;;5001882;28;20381;-85
2022/11/11 07:40:26;;;;;;;2.15;1.00;;;23.30;99.90;;;;;;4999627;28;20411;-83
2022/11/11 07:42:58;;;;;;;3.67;1.00;;;23.20;99.90;;;;;;4999095;28;20380;-89
2022/11/11 07:45:25;;;;;;;3.20;0.98;;;23.10;99.90;;;;;;5015980;28;20431;-88
2022/11/11 07:47:52;;;;;;;1.92;1.00;;;23.20;99.90;;;;;;5005603;28;20386;-87
2022/11/11 07:50:19;;;;;;;2.77;1.10;;;23.30;99.90;;;;;;4997329;28;20415;-87
2022/11/11 07:52:49;;;;;;;3.67;1.17;;;23.20;99.90;;;;;;4995578;28;20926;-90
2022/11/11 07:55:17;;;;;;;4.13;2.10;;;23.10;99.90;;;;;;4997557;28;20389;-86
2022/11/11 07:57:44;;;;;;;3.45;1.52;;;22.90;99.90;;;;;;5008559;28;20415;-90
2022/11/11 08:00:11;;;;;;;3.15;2.20;;;22.80;99.90;;;;;;5001847;28;20409;-87
2022/11/11 08:02:38;;;;;;;3.80;1.40;;;22.70;99.90;;;;;;5001864;28;20384;-88
2022/11/11 08:05:06;;;;;;;3.33;1.60;;;22.60;99.90;;;;;;4996407;28;20889;-86
2022/11/11 08:07:35;;;;;;;6.60;2.78;;;22.50;99.90;;;;;;5006570;28;20445;-86
2022/11/11 08:10:02;;;;;;;3.53;1.77;;;22.50;99.90;;;;;;4992712;28;20413;-87
2022/11/11 08:15:14;;;;;;;3.90;1.90;;;22.40;99.90;;;;;;4986454;28;20791;-86
2022/11/11 08:17:43;;;;;;;2.72;1.30;;;22.40;99.90;;;;;;4992014;28;20397;-88
2022/11/11 08:20:11;;;;;;;4.20;2.53;;;22.50;99.90;;;;;;5002712;28;20394;-85
2022/11/11 08:22:40;;;;;;;2.40;1.50;;;22.40;99.90;;;;;;5002460;28;20418;-84
2022/11/11 08:25:10;;;;;;;4.50;3.40;;;22.30;99.90;;;;;;5001554;28;20413;-89
2022/11/11 08:27:37;;;;;;;2.33;1.70;;;22.10;99.90;;;;;;5003395;28;20383;-86
2022/11/11 08:30:06;;;;;;;2.83;1.60;;;21.90;99.90;;;;;;4993695;28;20412;-87
2022/11/11 08:32:34;;;;;;;3.17;1.40;;;21.90;99.90;;;;;;5001396;28;20378;-89
2022/11/11 08:35:00;;;;;;;3.33;2.25;;;21.80;99.90;;;;;;4999621;28;20588;-86
2022/11/11 08:37:28;;;;;;;2.45;1.85;;;21.70;99.90;;;;;;5012002;28;20897;-89
2022/11/11 08:39:56;;;;;;;16.92;12.27;;;21.60;99.90;;;;;;5003466;28;20413;-85
2022/11/11 08:42:23;;;;;;;8.13;4.75;;;21.50;99.90;;;;;;4998053;28;20395;-85
2022/11/11 08:44:50;;;;;;;7.63;3.42;;;21.40;99.90;;;;;;4995154;28;20421;-93
2022/11/11 08:47:19;;;;;;;13.40;9.17;;;21.30;99.90;;;;;;5009989;28;20458;-89
2022/11/11 08:49:48;;;;;;;16.77;12.10;;;21.20;99.90;;;;;;5001425;28;20405;-89
2022/11/11 08:52:15;;;;;;;12.27;9.93;;;21.20;99.90;;;;;;5003745;28;20393;-91
2022/11/11 08:54:42;;;;;;;69.00;49.17;;;21.10;99.90;;;;;;5003922;28;20503;-86
2022/11/11 08:57:09;;;;;;;30.80;19.33;;;21.10;99.90;;;;;;4997906;28;20389;-85
2022/11/11 08:59:36;;;;;;;7.75;5.20;;;21.10;99.90;;;;;;4996537;28;20383;-85
2022/11/11 09:02:03;;;;;;;8.50;6.00;;;21.00;99.90;;;;;;5002646;28;20383;-90
2022/11/11 09:04:30;;;;;;;2.65;1.60;;;21.10;99.90;;;;;;5001211;28;20459;-86
2022/11/11 09:06:57;;;;;;;3.33;2.45;;;21.00;99.90;;;;;;4991350;28;20817;-84
2022/11/11 09:09:24;;;;;;;4.50;2.20;;;21.00;99.90;;;;;;5008699;28;20922;-91
2022/11/11 09:11:51;;;;;;;5.18;1.60;;;21.00;99.90;;;;;;5001793;28;20451;-88
2022/11/11 09:14:18;;;;;;;2.55;1.50;;;21.00;99.90;;;;;;5007686;28;20794;-82
2022/11/11 09:16:45;;;;;;;6.65;4.78;;;20.90;99.90;;;;;;5011794;28;20406;-84
2022/11/11 09:19:12;;;;;;;56.75;46.75;;;20.80;99.90;;;;;;5010887;28;20478;-82
2022/11/11 09:21:39;;;;;;;36.25;26.92;;;20.70;99.90;;;;;;5008399;28;20388;-80
2022/11/11 09:24:06;;;;;;;25.30;18.38;;;20.60;99.90;;;;;;4991911;28;20389;-84
2022/11/11 09:26:33;;;;;;;6.97;4.50;;;20.50;99.90;;;;;;5011665;28;20405;-88
2022/11/11 09:29:00;;;;;;;2.85;1.98;;;20.50;99.90;;;;;;5011765;28;20875;-86
2022/11/11 09:31:27;;;;;;;3.90;1.90;;;20.30;99.90;;;;;;4996407;28;20403;-84
2022/11/11 09:33:54;;;;;;;5.03;2.60;;;20.20;99.90;;;;;;5007239;28;20850;-84
2022/11/11 09:36:21;;;;;;;3.80;1.87;;;20.10;99.90;;;;;;5000322;28;20739;-83
2022/11/11 09:38:48;;;;;;;2.72;1.80;;;20.10;99.90;;;;;;5011229;28;20391;-82
2022/11/11 09:41:31;;;;;;;4.05;1.90;;;20.00;99.90;;;;;;5011011;28;20436;-83
2022/11/11 09:44:00;;;;;;;2.90;1.80;;;19.90;99.90;;;;;;5009776;28;20419;-83
2022/11/11 09:47:04;;;;;;;4.72;1.83;;;19.80;99.90;;;;;;5006522;28;20395;-83
2022/11/11 09:50:00;;;;;;;3.10;1.90;;;19.80;99.90;;;;;;5010721;28;20391;-83
2022/11/11 09:52:31;;;;;;;3.97;2.17;;;19.70;99.90;;;;;;5003133;28;20421;-83
2022/11/11 09:55:16;;;;;;;4.65;2.10;;;19.70;99.90;;;;;;4984111;28;20396;-83
2022/11/11 09:57:46;;;;;;;5.28;2.03;;;19.60;99.90;;;;;;4995488;28;20486;-83
2022/11/11 10:00:21;;;;;;;4.00;2.10;;;19.60;99.90;;;;;;4994501;28;20389;-83
2022/11/11 10:02:48;;;;;;;4.28;2.15;;;19.50;99.90;;;;;;5007137;28;20435;-81
2022/11/11 10:05:19;;;;;;;3.00;2.00;;;19.40;99.90;;;;;;4998273;28;20397;-81
2022/11/11 10:08:09;;;;;;;4.78;2.08;;;19.40;99.90;;;;;;4998909;28;20387;-82
2022/11/11 10:10:43;;;;;;;2.78;1.92;;;19.40;99.90;;;;;;5001613;28;20411;-81
2022/11/11 10:13:19;;;;;;;4.20;1.90;;;19.30;99.90;;;;;;5006324;28;20387;-82
2022/11/11 10:16:27;;;;;;;3.63;1.85;;;19.30;99.90;;;;;;5010545;28;20448;-81
2022/11/11 10:18:57;;;;;;;5.85;2.38;;;19.20;99.90;;;;;;4986474;28;20383;-81
2022/11/11 10:21:31;;;;;;;3.78;2.20;;;19.20;99.90;;;;;;5010300;28;20368;-81
2022/11/11 10:24:01;;;;;;;3.90;2.25;;;19.20;99.90;;;;;;4999167;28;20409;-83
2022/11/11 10:26:36;;;;;;;4.32;2.20;;;19.10;99.90;;;;;;5006998;28;20454;-82
2022/11/11 10:29:17;;;;;;;4.18;2.00;;;19.10;99.90;;;;;;5003332;28;20399;-80
2022/11/11 10:32:24;;;;;;;3.25;1.70;;;19.10;99.90;;;;;;4992245;28;20396;-81
2022/11/11 10:34:51;;;;;;;6.57;1.65;;;19.00;99.90;;;;;;4976822;28;20469;-81
2022/11/11 10:37:26;;;;;;;4.53;1.50;;;19.00;99.90;;;;;;4971248;28;20438;-81
2022/11/11 10:39:56;;;;;;;2.85;1.40;;;19.00;99.90;;;;;;4983108;28;20444;-80
2022/11/11 10:42:23;;;;;;;2.85;1.60;;;19.00;99.90;;;;;;4988476;28;20482;-80
2022/11/11 10:44:56;;;;;;;4.82;1.80;;;19.00;99.90;;;;;;4983250;28;20747;-80
2022/11/11 10:47:44;;;;;;;2.28;1.58;;;19.00;99.90;;;;;;4982046;28;20780;-79
2022/11/11 10:50:16;;;;;;;2.60;1.80;;;19.00;99.90;;;;;;4987702;28;20412;-80
2022/11/11 10:53:15;;;;;;;3.70;1.90;;;19.00;99.90;;;;;;4987003;28;20393;-81
2022/11/11 10:55:53;;;;;;;4.90;1.90;;;18.90;99.90;;;;;;4949976;28;20398;-79
2022/11/11 10:58:48;;;;;;;3.15;1.83;;;18.80;99.90;;;;;;4948064;29;20473;-81
2022/11/11 11:01:21;;;;;;;3.58;1.80;;;18.80;99.90;;;;;;4937130;29;21010;-81
2022/11/11 11:04:26;;;;;;;4.85;2.00;;;18.80;99.90;;;;;;4951866;29;21069;-81
2022/11/11 11:06:54;;;;;;;3.63;2.03;;;18.80;99.90;;;;;;4963663;28;20981;-81
2022/11/11 11:09:55;;;;;;;4.70;2.03;;;18.80;99.90;;;;;;4968655;28;20418;-79
2022/11/11 11:13:06;;;;;;;3.75;2.00;;;18.80;99.90;;;;;;4969645;28;20441;-81
2022/11/11 11:15:38;;;;;;;3.23;1.90;;;18.80;99.90;;;;;;4907046;29;20963;-81
2022/11/11 11:18:11;;;;;;;3.57;1.90;;;18.70;99.90;;;;;;4914296;29;20462;-82
2022/11/11 11:20:38;;;;;;;6.50;1.90;;;18.70;99.90;;;;;;4914729;29;20402;-81
2022/11/11 11:23:05;;;;;;;3.30;1.90;;;18.60;99.90;;;;;;4902828;29;20774;-81
2022/11/11 11:25:32;;;;;;;3.65;1.55;;;18.60;99.90;;;;;;4911365;29;20399;-81
2022/11/11 11:28:13;;;;;;;2.42;1.40;;;18.60;99.90;;;;;;4921972;29;20422;-80
2022/11/11 11:30:57;;;;;;;3.28;1.40;;;18.60;99.90;;;;;;4914401;29;20443;-81
2022/11/11 11:33:24;;;;;;;2.10;1.45;;;18.60;99.90;;;;;;4930027;29;20891;-81
2022/11/11 11:35:50;;;;;;;2.70;1.48;;;18.60;99.90;;;;;;4932873;29;20398;-81
2022/11/11 11:38:18;;;;;;;2.70;1.50;;;18.50;99.90;;;;;;4933233;29;20461;-80
2022/11/11 11:40:51;;;;;;;2.17;1.30;;;18.50;99.90;;;;;;4932744;29;20448;-80
2022/11/11 11:43:27;;;;;;;3.35;1.50;;;18.50;99.90;;;;;;4933281;29;20413;-82
2022/11/11 11:45:58;;;;;;;2.72;1.30;;;18.40;99.90;;;;;;4933021;29;20458;-81
2022/11/11 11:48:43;;;;;;;2.63;1.10;;;18.40;99.90;;;;;;4933147;29;20394;-81
2022/11/11 11:51:46;;;;;;;3.55;1.30;;;18.40;99.90;;;;;;4949488;28;20408;-81
2022/11/11 11:54:43;;;;;;;2.30;1.30;;;18.40;99.90;;;;;;5000519;28;20387;-82
2022/11/11 11:57:23;;;;;;;2.83;1.30;;;18.40;99.90;;;;;;5012088;28;20376;-82
2022/11/11 11:59:59;;;;;;;2.60;1.10;;;18.40;99.90;;;;;;5005859;28;20387;-81
2022/11/11 12:02:44;;;;;;;3.70;1.20;;;18.40;99.90;;;;;;5013222;28;20379;-82
2022/11/11 12:05:14;;;;;;;2.38;1.20;;;18.40;99.90;;;;;;5010786;28;20375;-81
2022/11/11 12:07:59;;;;;;;3.42;1.20;;;18.30;99.90;;;;;;4997262;28;20881;-82
2022/11/11 12:10:26;;;;;;;2.33;1.30;;;18.30;99.90;;;;;;5011239;28;20452;-80
2022/11/11 12:13:26;;;;;;;3.05;1.20;;;18.20;99.90;;;;;;5008713;28;20375;-82
2022/11/11 12:16:24;;;;;;;6.10;1.40;;;18.20;99.90;;;;;;5008909;28;20391;-82
2022/11/11 12:18:54;;;;;;;3.33;1.20;;;18.10;99.90;;;;;;5013187;28;20374;-81
2022/11/11 12:21:31;;;;;;;2.40;1.30;;;18.00;99.90;;;;;;5011351;28;20456;-81
2022/11/11 12:23:58;;;;;;;3.50;1.40;;;17.90;99.90;;;;;;5012444;28;20509;-82
2022/11/11 12:26:43;;;;;;;2.60;1.30;;;17.90;99.90;;;;;;5005887;28;20427;-81
2022/11/11 12:29:28;;;;;;;2.58;1.30;;;17.80;99.90;;;;;;4985295;28;20430;-80
2022/11/11 12:32:04;;;;;;;2.33;1.70;;;17.80;99.90;;;;;;5000053;28;20397;-81
2022/11/11 12:34:56;;;;;;;3.92;1.58;;;17.80;99.90;;;;;;5004945;28;20476;-80
2022/11/11 12:37:49;;;;;;;2.75;1.50;;;17.70;99.90;;;;;;5006416;28;20389;-80
2022/11/11 12:40:19;;;;;;;2.42;1.42;;;17.70;99.90;;;;;;4999716;28;20428;-81
2022/11/11 12:43:11;;;;;;;2.30;1.43;;;17.60;99.90;;;;;;5012068;28;20867;-82
2022/11/11 12:45:46;;;;;;;1.50;1.30;;;17.70;99.90;;;;;;5011826;28;20731;-83
2022/11/11 12:48:46;;;;;;;3.30;1.30;;;17.70;99.90;;;;;;5009267;28;21061;-82
2022/11/11 12:51:13;;;;;;;3.58;1.60;;;17.70;99.90;;;;;;5011450;28;20506;-82
2022/11/11 12:53:50;;;;;;;3.42;1.40;;;17.70;99.90;;;;;;5003335;28;20415;-82
2022/11/11 12:56:29;;;;;;;2.67;1.40;;;17.70;99.90;;;;;;4995896;28;20483;-81
2022/11/11 12:59:03;;;;;;;3.15;1.50;;;17.60;99.90;;;;;;5011758;28;20403;-81
2022/11/11 13:01:50;;;;;;;4.40;1.70;;;17.60;99.90;;;;;;5011444;28;20375;-80
2022/11/11 13:04:52;;;;;;;3.47;1.65;;;17.60;99.90;;;;;;5006289;28;20735;-80
2022/11/11 13:07:55;;;;;;;4.72;1.92;;;17.60;99.90;;;;;;5011536;28;20740;-81
2022/11/11 13:10:35;;;;;;;3.63;2.10;;;17.50;99.90;;;;;;5000341;28;20403;-80
2022/11/11 13:13:44;;;;;;;4.22;2.17;;;17.50;99.90;;;;;;5007260;28;20391;-81
2022/11/11 13:16:11;;;;;;;4.07;2.30;;;17.40;99.90;;;;;;5005736;28;20782;-80
2022/11/11 13:19:27;;;;;;;5.97;2.40;;;17.40;99.90;;;;;;5011113;28;20387;-82
2022/11/11 13:22:28;;;;;;;4.18;2.03;;;17.40;99.90;;;;;;4954961;28;20406;-81
2022/11/11 13:24:56;;;;;;;3.80;2.07;;;17.40;99.90;;;;;;4969514;28;20494;-81
2022/11/11 13:27:48;;;;;;;4.38;2.00;;;17.40;99.90;;;;;;4959850;28;20475;-81
2022/11/11 13:30:27;;;;;;;2.83;1.40;;;17.40;99.90;;;;;;4952214;28;20497;-81
2022/11/11 13:33:14;;;;;;;2.47;1.50;;;17.30;99.90;;;;;;4962015;28;20775;-81
2022/11/11 13:35:57;;;;;;;4.85;1.38;;;17.30;99.90;;;;;;4893438;29;20429;-81
2022/11/11 13:38:47;;;;;;;2.15;1.30;;;17.30;99.90;;;;;;4893103;29;20397;-80
2022/11/11 13:41:23;;;;;;;2.13;1.40;;;17.20;99.90;;;;;;4893367;29;20441;-80
2022/11/11 13:43:52;;;;;;;3.60;1.40;;;17.20;99.90;;;;;;4893349;29;20393;-81
2022/11/11 13:46:41;;;;;;;2.30;1.40;;;17.20;99.90;;;;;;4893150;29;20488;-80
2022/11/11 13:49:22;;;;;;;2.78;1.50;;;17.10;99.90;;;;;;4893147;29;20417;-80
2022/11/11 13:51:58;;;;;;;2.25;1.45;;;17.10;99.90;;;;;;4893604;29;20397;-81
2022/11/11 13:54:47;;;;;;;1.90;1.50;;;17.10;99.90;;;;;;4893456;29;20492;-80
2022/11/11 13:57:17;;;;;;;2.63;1.35;;;17.00;99.90;;;;;;4893533;29;20448;-80
2022/11/11 13:59:59;;;;;;;2.33;1.15;;;17.00;99.90;;;;;;4917635;29;20802;-81
2022/11/11 14:02:32;;;;;;;2.60;1.50;;;17.00;99.90;;;;;;4912355;29;20767;-81
2022/11/11 14:05:05;;;;;;;1.90;1.40;;;17.00;99.90;;;;;;4905932;29;20478;-81
2022/11/11 14:07:48;;;;;;;3.33;1.50;;;17.00;99.90;;;;;;4912250;29;20403;-81
2022/11/11 14:10:18;;;;;;;2.80;1.58;;;16.90;99.90;;;;;;4912061;29;20443;-81
2022/11/11 14:12:55;;;;;;;2.88;1.42;;;16.80;99.90;;;;;;4951445;28;20911;-81
2022/11/11 14:15:48;;;;;;;2.40;1.60;;;16.80;99.90;;;;;;5002936;28;20426;-82
2022/11/11 14:18:18;;;;;;;4.13;1.48;;;16.70;99.90;;;;;;5010964;28;20391;-81
2022/11/11 14:20:54;;;;;;;2.47;1.40;;;16.70;99.90;;;;;;4993584;28;20427;-81
2022/11/11 14:23:38;;;;;;;4.22;1.60;;;16.60;99.90;;;;;;4998644;28;20859;-81
2022/11/11 14:26:11;;;;;;;3.75;1.70;;;16.50;99.90;;;;;;5010459;28;20379;-81